Time;durP1;ratioP1;P1;durP2;ratioP2;P2;SDS_P1;SDS_P2;PMS_P1;PMS_P2;Temp;Humidity;BMP_temperature;BMP_pressure;BME280_temperature;BME280_humidity;BME280_pressure;Samples;Min_cycle;Max_cycle;Signal;HPM_P1;HPM_P2
2020/12/03 06:02:43;;;;;;;;;;;;;;;;;;5083127;28;20686;-58
2020/12/03 06:05:18;;;;;;;12.68;1.52;;;;;;;;;;5083950;28;20491;-58
2020/12/03 06:07:44;;;;;;;12.80;1.45;;;;;;;;;;5084886;28;20150;-58
2020/12/03 06:10:21;;;;;;;9.25;1.73;;;;;;;;;;5086125;28;20131;-59
2020/12/03 06:12:47;;;;;;;10.82;1.27;;;;;;;;;;5079785;28;20032;-58
2020/12/03 06:15:13;;;;;;;9.43;1.80;;;;;;;;;;5072410;28;20028;-59
2020/12/03 06:17:46;;;;;;;8.98;1.35;;;;;;;;;;5068503;28;20078;-58
2020/12/03 06:20:30;;;;;;;10.90;1.83;;;;;;;;;;5084193;28;20024;-59
2020/12/03 06:23:16;;;;;;;10.80;2.05;;;;;;;;;;5072234;28;20036;-58
2020/12/03 06:25:46;;;;;;;10.60;1.30;;;;;;;;;;5082481;28;20050;-58
2020/12/03 06:28:20;;;;;;;12.30;1.40;;;;;;;;;;5077900;28;20086;-59
2020/12/03 06:30:53;;;;;;;9.60;1.30;;;;;;;;;;5072570;28;20114;-59
2020/12/03 06:33:22;;;;;;;10.65;1.88;;;;;;;;;;5072276;28;20063;-57
2020/12/03 06:35:50;;;;;;;13.40;2.20;;;;;;;;;;5075486;28;20020;-59
2020/12/03 06:38:25;;;;;;;8.25;1.85;;;;;;;;;;5083841;28;20040;-60
2020/12/03 06:40:57;;;;;;;9.32;1.48;;;;;;;;;;5073379;28;20102;-57
2020/12/03 06:43:35;;;;;;;15.25;1.70;;;;;;;;;;5071760;28;20098;-58
2020/12/03 06:46:17;;;;;;;7.72;1.40;;;;;;;;;;5072043;28;20075;-57
2020/12/03 06:48:55;;;;;;;12.73;2.10;;;;;;;;;;5073341;28;20119;-55
2020/12/03 06:51:36;;;;;;;14.27;1.73;;;;;;;;;;5071358;28;20070;-55
2020/12/03 06:54:05;;;;;;;12.15;1.75;;;;;;;;;;5070099;28;20492;-56
2020/12/03 06:57:10;;;;;;;12.05;1.73;;;;;;;;;;5068430;28;20414;-56
2020/12/03 06:59:45;;;;;;;10.75;1.90;;;;;;;;;;5080331;28;20029;-54
2020/12/03 07:02:26;;;;;;;9.70;1.88;;;;;;;;;;5072409;28;20044;-54
2020/12/03 07:05:11;;;;;;;8.75;1.50;;;;;;;;;;5068091;28;20098;-62
2020/12/03 07:07:43;;;;;;;12.38;1.73;;;;;;;;;;5063294;28;20024;-63
2020/12/03 07:10:22;;;;;;;13.85;1.65;;;;;;;;;;5065284;28;20044;-63
2020/12/03 07:13:00;;;;;;;10.20;1.10;;;;;;;;;;5057704;28;20032;-58
2020/12/03 07:15:32;;;;;;;11.10;1.65;;;;;;;;;;5066806;28;20435;-57
2020/12/03 07:18:17;;;;;;;13.80;1.77;;;;;;;;;;5058708;28;20041;-57
2020/12/03 07:21:21;;;;;;;11.88;1.63;;;;;;;;;;5065032;28;20134;-58
2020/12/03 07:23:57;;;;;;;13.38;1.85;;;;;;;;;;5008240;28;20065;-57
2020/12/03 07:26:43;;;;;;;8.38;1.55;;;;;;;;;;5007647;28;20040;-56
2020/12/03 07:29:35;;;;;;;8.52;1.42;;;;;;;;;;5007402;28;20128;-57
2020/12/03 07:32:03;;;;;;;16.15;1.63;;;;;;;;;;5014293;28;20068;-57
2020/12/03 07:34:40;;;;;;;8.10;1.52;;;;;;;;;;5012605;28;20051;-57
2020/12/03 07:37:12;;;;;;;6.85;1.75;;;;;;;;;;5027372;28;20894;-58
2020/12/03 07:39:38;;;;;;;9.88;1.67;;;;;;;;;;5011152;28;20033;-57
2020/12/03 07:42:12;;;;;;;5.53;1.23;;;;;;;;;;5012528;28;20037;-57
2020/12/03 07:44:43;;;;;;;9.73;1.63;;;;;;;;;;5005231;28;20033;-58
2020/12/03 07:47:21;;;;;;;10.00;1.10;;;;;;;;;;5012540;28;20030;-58
2020/12/03 07:49:49;;;;;;;12.27;1.35;;;;;;;;;;5016963;28;20505;-57
2020/12/03 07:52:23;;;;;;;6.40;1.25;;;;;;;;;;5027112;28;20042;-58
2020/12/03 07:54:49;;;;;;;9.35;1.17;;;;;;;;;;5040541;28;20155;-58
2020/12/03 07:57:24;;;;;;;6.15;1.00;;;;;;;;;;5069861;28;20024;-58
2020/12/03 07:59:50;;;;;;;9.82;1.13;;;;;;;;;;5069112;28;20051;-57
2020/12/03 08:02:35;;;;;;;10.60;1.20;;;;;;;;;;5068756;28;20043;-58
2020/12/03 08:05:21;;;;;;;10.50;1.98;;;;;;;;;;5067102;28;20024;-58
2020/12/03 08:07:47;;;;;;;6.72;1.45;;;;;;;;;;5066534;28;20027;-57
2020/12/03 08:10:46;;;;;;;7.25;1.05;;;;;;;;;;5068415;28;20035;-55
2020/12/03 08:13:30;;;;;;;9.23;0.90;;;;;;;;;;5024146;28;20476;-58
2020/12/03 08:16:02;;;;;;;4.70;0.90;;;;;;;;;;5028067;28;20120;-58
2020/12/03 08:18:42;;;;;;;5.18;1.02;;;;;;;;;;5028065;28;20021;-56
2020/12/03 08:21:09;;;;;;;5.18;0.88;;;;;;;;;;5026849;28;20029;-58
2020/12/03 08:23:35;;;;;;;5.80;1.05;;;;;;;;;;5026590;28;20037;-57
2020/12/03 08:26:01;;;;;;;9.10;1.20;;;;;;;;;;5026936;28;20035;-60
2020/12/03 08:28:29;;;;;;;7.53;0.95;;;;;;;;;;5026434;28;20032;-58
2020/12/03 08:30:55;;;;;;;10.20;1.30;;;;;;;;;;5027946;28;20042;-58
2020/12/03 08:33:34;;;;;;;1.58;0.70;;;;;;;;;;5026793;28;20095;-60
2020/12/03 08:36:02;;;;;;;11.32;1.20;;;;;;;;;;5026627;28;20033;-58
2020/12/03 08:38:32;;;;;;;8.80;1.13;;;;;;;;;;5025731;28;20087;-57
2020/12/03 08:41:01;;;;;;;6.90;0.90;;;;;;;;;;5027126;28;20033;-58
2020/12/03 08:43:29;;;;;;;7.15;0.98;;;;;;;;;;5025666;28;20129;-58
2020/12/03 08:46:02;;;;;;;6.97;1.33;;;;;;;;;;5024721;28;20460;-57
2020/12/03 08:48:30;;;;;;;3.83;1.17;;;;;;;;;;5041624;28;20036;-58
2020/12/03 08:50:58;;;;;;;4.22;0.85;;;;;;;;;;5066165;28;20408;-57
2020/12/03 08:53:26;;;;;;;6.75;0.90;;;;;;;;;;5068024;28;20059;-58
2020/12/03 08:55:52;;;;;;;7.35;1.02;;;;;;;;;;5068791;28;20414;-58
2020/12/03 08:58:21;;;;;;;8.15;1.00;;;;;;;;;;5068741;28;20098;-59
2020/12/03 09:00:48;;;;;;;6.90;0.98;;;;;;;;;;5069007;28;20104;-58
2020/12/03 09:03:15;;;;;;;10.43;1.00;;;;;;;;;;5070339;28;20016;-61
2020/12/03 09:05:42;;;;;;;6.30;1.10;;;;;;;;;;5068978;28;20035;-58
2020/12/03 09:08:10;;;;;;;8.05;1.02;;;;;;;;;;5069366;28;20445;-59
2020/12/03 09:10:36;;;;;;;8.38;1.48;;;;;;;;;;5068746;28;20293;-57
2020/12/03 09:13:02;;;;;;;5.00;1.00;;;;;;;;;;5067243;28;20081;-59
2020/12/03 09:15:30;;;;;;;6.85;1.40;;;;;;;;;;5070242;28;20440;-58
2020/12/03 09:17:59;;;;;;;4.68;0.85;;;;;;;;;;5068753;28;20645;-58
2020/12/03 09:20:26;;;;;;;9.25;1.38;;;;;;;;;;5068784;28;20103;-59
2020/12/03 09:22:52;;;;;;;3.65;0.85;;;;;;;;;;5068912;28;20024;-56
2020/12/03 09:25:18;;;;;;;5.85;0.98;;;;;;;;;;5065483;28;20025;-57
2020/12/03 09:27:48;;;;;;;7.40;1.35;;;;;;;;;;5067757;28;20028;-58
2020/12/03 09:30:19;;;;;;;5.03;1.05;;;;;;;;;;5068651;28;20072;-56
2020/12/03 09:33:04;;;;;;;10.02;1.45;;;;;;;;;;5068551;28;20401;-56
2020/12/03 09:35:32;;;;;;;9.43;1.30;;;;;;;;;;5067377;28;20512;-58
2020/12/03 09:38:01;;;;;;;5.70;0.70;;;;;;;;;;5068578;28;20267;-58
2020/12/03 09:40:29;;;;;;;5.65;0.98;;;;;;;;;;5068087;28;20031;-58
2020/12/03 09:42:56;;;;;;;4.00;1.08;;;;;;;;;;5068843;28;20427;-58
2020/12/03 09:45:24;;;;;;;3.63;0.85;;;;;;;;;;5069038;28;20039;-58
2020/12/03 09:47:51;;;;;;;6.82;0.80;;;;;;;;;;5068738;28;20099;-58
2020/12/03 09:50:21;;;;;;;4.15;1.00;;;;;;;;;;5066276;28;20046;-57
2020/12/03 09:52:48;;;;;;;3.58;0.80;;;;;;;;;;5068834;28;20388;-59
2020/12/03 09:55:15;;;;;;;6.03;0.98;;;;;;;;;;5067827;28;20592;-58
2020/12/03 09:57:57;;;;;;;4.78;0.77;;;;;;;;;;5068183;28;20512;-58
2020/12/03 10:00:29;;;;;;;5.03;1.05;;;;;;;;;;5069292;28;20037;-58
2020/12/03 10:03:14;;;;;;;6.97;0.90;;;;;;;;;;5067621;28;20039;-57
2020/12/03 10:05:41;;;;;;;4.07;1.10;;;;;;;;;;5066745;28;20082;-58
2020/12/03 10:08:09;;;;;;;6.90;0.90;;;;;;;;;;5068352;28;20099;-58
2020/12/03 10:10:44;;;;;;;6.95;1.15;;;;;;;;;;5066364;28;20521;-56
2020/12/03 10:13:29;;;;;;;13.73;1.50;;;;;;;;;;5051470;28;20068;-58
2020/12/03 10:15:55;;;;;;;8.60;1.80;;;;;;;;;;5066570;28;20467;-60
2020/12/03 10:18:22;;;;;;;7.78;1.13;;;;;;;;;;5055156;28;20025;-60
2020/12/03 10:20:49;;;;;;;11.38;1.73;;;;;;;;;;5060582;28;20026;-60
2020/12/03 10:23:15;;;;;;;8.43;1.27;;;;;;;;;;5062697;28;20017;-59
2020/12/03 10:25:41;;;;;;;7.47;0.90;;;;;;;;;;5053849;28;20052;-61
2020/12/03 10:28:22;;;;;;;11.35;1.77;;;;;;;;;;5066794;28;20033;-62
2020/12/03 10:30:53;;;;;;;9.73;1.50;;;;;;;;;;5065797;28;20112;-61
2020/12/03 10:33:20;;;;;;;9.68;1.08;;;;;;;;;;5064784;28;20469;-62
2020/12/03 10:35:48;;;;;;;3.97;0.80;;;;;;;;;;5063936;28;20009;-61
2020/12/03 10:38:34;;;;;;;6.32;0.80;;;;;;;;;;5068567;28;20153;-62
2020/12/03 10:41:03;;;;;;;12.77;1.40;;;;;;;;;;5064075;28;20033;-63
2020/12/03 10:43:35;;;;;;;5.68;1.20;;;;;;;;;;5057755;28;20489;-61
2020/12/03 10:46:05;;;;;;;9.57;1.30;;;;;;;;;;5070102;28;20107;-62
2020/12/03 10:48:34;;;;;;;4.72;1.60;;;;;;;;;;5057973;28;20425;-61
2020/12/03 10:51:04;;;;;;;8.35;0.98;;;;;;;;;;5065338;28;20054;-63
2020/12/03 10:53:31;;;;;;;7.18;1.10;;;;;;;;;;5063735;28;20035;-61
2020/12/03 10:55:58;;;;;;;5.68;1.30;;;;;;;;;;5064278;28;20021;-64
2020/12/03 10:58:29;;;;;;;12.02;2.75;;;;;;;;;;5055035;28;20033;-61
2020/12/03 11:00:55;;;;;;;9.65;2.00;;;;;;;;;;5068719;28;20053;-57
2020/12/03 11:03:27;;;;;;;11.07;1.65;;;;;;;;;;5061067;28;20028;-60
2020/12/03 11:05:53;;;;;;;7.53;1.10;;;;;;;;;;5068699;28;20032;-58
2020/12/03 11:08:19;;;;;;;5.47;1.00;;;;;;;;;;5066308;28;20025;-60
2020/12/03 11:10:46;;;;;;;10.65;1.52;;;;;;;;;;5065963;28;20505;-61
2020/12/03 11:13:19;;;;;;;5.60;1.10;;;;;;;;;;5064012;28;20032;-60
2020/12/03 11:15:45;;;;;;;10.82;1.73;;;;;;;;;;5069675;28;20273;-59
2020/12/03 11:18:12;;;;;;;7.68;1.52;;;;;;;;;;5062455;28;20036;-59
2020/12/03 11:20:39;;;;;;;8.35;1.45;;;;;;;;;;5067605;28;20355;-59
2020/12/03 11:23:13;;;;;;;12.80;1.75;;;;;;;;;;5068443;28;20032;-59
2020/12/03 11:25:40;;;;;;;13.60;1.58;;;;;;;;;;5067996;28;20027;-59
2020/12/03 11:28:26;;;;;;;12.70;1.80;;;;;;;;;;5054593;28;20036;-60
2020/12/03 11:31:03;;;;;;;7.25;1.40;;;;;;;;;;5068418;28;20515;-60
2020/12/03 11:33:33;;;;;;;9.55;1.55;;;;;;;;;;5057280;28;20508;-59
2020/12/03 11:36:07;;;;;;;12.95;2.03;;;;;;;;;;5064656;28;20060;-58
2020/12/03 11:38:33;;;;;;;10.13;1.80;;;;;;;;;;5062856;28;20055;-59
2020/12/03 11:41:04;;;;;;;7.65;1.95;;;;;;;;;;5061112;28;20024;-59
2020/12/03 11:46:30;;;;;;;8.43;1.65;;;;;;;;;;5068007;28;20408;-59
2020/12/03 11:48:56;;;;;;;17.48;2.10;;;;;;;;;;5068271;28;20105;-59
2020/12/03 11:51:29;;;;;;;15.20;1.75;;;;;;;;;;5056758;28;20553;-59
2020/12/03 11:53:57;;;;;;;14.10;2.20;;;;;;;;;;5063694;28;20021;-59
2020/12/03 11:56:23;;;;;;;14.68;2.72;;;;;;;;;;5063378;28;20070;-59
2020/12/03 11:58:49;;;;;;;12.27;1.80;;;;;;;;;;5054405;28;20033;-59
2020/12/03 12:01:16;;;;;;;6.43;1.27;;;;;;;;;;5068415;28;20055;-59
2020/12/03 12:03:47;;;;;;;14.85;2.20;;;;;;;;;;5068194;28;20031;-58
2020/12/03 12:06:20;;;;;;;14.25;1.95;;;;;;;;;;5066112;28;20036;-59
2020/12/03 12:09:11;;;;;;;20.52;2.28;;;;;;;;;;5060296;28;20527;-59
2020/12/03 12:11:42;;;;;;;9.55;1.55;;;;;;;;;;5057955;28;20036;-59
2020/12/03 12:14:08;;;;;;;9.18;1.83;;;;;;;;;;5059582;28;20394;-59
2020/12/03 12:16:34;;;;;;;12.32;1.48;;;;;;;;;;5068304;28;20033;-59
2020/12/03 12:19:01;;;;;;;17.65;2.38;;;;;;;;;;5053443;28;20551;-59
2020/12/03 12:21:29;;;;;;;11.15;2.10;;;;;;;;;;5067488;28;20147;-59
2020/12/03 12:23:56;;;;;;;16.40;1.30;;;;;;;;;;5064902;28;20047;-59
2020/12/03 12:26:22;;;;;;;15.90;1.92;;;;;;;;;;5063296;28;20029;-58
2020/12/03 12:28:48;;;;;;;12.82;1.80;;;;;;;;;;5056735;28;20114;-60
2020/12/03 12:31:17;;;;;;;15.95;2.15;;;;;;;;;;5053572;28;20056;-60
2020/12/03 12:33:43;;;;;;;12.52;1.67;;;;;;;;;;5067654;28;20463;-60
2020/12/03 12:36:09;;;;;;;17.60;1.90;;;;;;;;;;5056449;28;20490;-58
2020/12/03 12:38:36;;;;;;;13.23;2.05;;;;;;;;;;5059837;28;20028;-59
2020/12/03 12:41:02;;;;;;;18.25;1.85;;;;;;;;;;5065670;28;20027;-60
2020/12/03 12:43:28;;;;;;;12.15;1.63;;;;;;;;;;5053297;28;20113;-59
2020/12/03 12:45:54;;;;;;;12.57;1.73;;;;;;;;;;5067377;28;20028;-59
2020/12/03 12:48:21;;;;;;;10.93;1.30;;;;;;;;;;5058484;28;20386;-62
2020/12/03 12:50:47;;;;;;;16.42;1.70;;;;;;;;;;5064876;28;20051;-60
2020/12/03 12:53:13;;;;;;;10.20;1.48;;;;;;;;;;5062823;28;20480;-60
2020/12/03 12:55:39;;;;;;;12.60;1.35;;;;;;;;;;5069042;28;20029;-59
2020/12/03 12:58:06;;;;;;;9.25;1.95;;;;;;;;;;5067696;28;20103;-58
2020/12/03 13:00:32;;;;;;;10.73;1.38;;;;;;;;;;5069120;28;20078;-59
2020/12/03 13:02:58;;;;;;;9.70;1.10;;;;;;;;;;5066262;28;20035;-60
2020/12/03 13:05:24;;;;;;;8.75;1.30;;;;;;;;;;5067637;28;20067;-59
2020/12/03 13:07:50;;;;;;;9.07;0.95;;;;;;;;;;5068598;28;20035;-59
2020/12/03 13:10:18;;;;;;;7.65;1.45;;;;;;;;;;5068333;28;20020;-60
2020/12/03 13:12:44;;;;;;;18.17;1.35;;;;;;;;;;5069685;28;20139;-59
2020/12/03 13:15:10;;;;;;;12.10;2.28;;;;;;;;;;5067816;28;20107;-59
2020/12/03 13:17:37;;;;;;;5.07;1.00;;;;;;;;;;5067582;28;20036;-62
2020/12/03 13:20:03;;;;;;;10.70;1.17;;;;;;;;;;5065163;28;20044;-59
2020/12/03 13:22:29;;;;;;;15.00;1.30;;;;;;;;;;5068404;28;20503;-59
2020/12/03 13:24:55;;;;;;;6.35;1.15;;;;;;;;;;5067678;28;20021;-58
2020/12/03 13:27:22;;;;;;;8.13;1.17;;;;;;;;;;5069149;28;20032;-59
2020/12/03 13:29:48;;;;;;;17.83;1.17;;;;;;;;;;5067482;28;20086;-60
2020/12/03 13:32:14;;;;;;;7.25;1.00;;;;;;;;;;5067537;28;20120;-59
2020/12/03 13:34:40;;;;;;;10.40;1.33;;;;;;;;;;5068721;28;20808;-59
2020/12/03 13:37:06;;;;;;;8.10;1.38;;;;;;;;;;5067129;28;20054;-59
2020/12/03 13:39:32;;;;;;;12.65;1.80;;;;;;;;;;5068840;28;20016;-59
2020/12/03 13:41:58;;;;;;;5.65;1.38;;;;;;;;;;5067480;28;20115;-59
2020/12/03 13:44:24;;;;;;;9.70;1.42;;;;;;;;;;5068189;28;20421;-59
2020/12/03 13:46:51;;;;;;;9.82;1.65;;;;;;;;;;5067899;28;20043;-59
2020/12/03 13:49:17;;;;;;;7.32;1.20;;;;;;;;;;5067338;28;20017;-59
2020/12/03 13:51:43;;;;;;;7.63;0.80;;;;;;;;;;5066927;28;20036;-61
2020/12/03 13:54:09;;;;;;;7.38;0.95;;;;;;;;;;5066184;28;20115;-59
2020/12/03 13:56:36;;;;;;;6.60;1.50;;;;;;;;;;5066776;28;20035;-59
2020/12/03 13:59:03;;;;;;;7.40;1.00;;;;;;;;;;5068169;28;20017;-58
2020/12/03 14:01:30;;;;;;;12.73;1.42;;;;;;;;;;5067301;28;20043;-59
2020/12/03 14:03:57;;;;;;;7.80;1.30;;;;;;;;;;5066712;28;20025;-59
2020/12/03 14:06:23;;;;;;;9.13;1.35;;;;;;;;;;5066648;28;20043;-60
2020/12/03 14:08:52;;;;;;;8.07;1.13;;;;;;;;;;5066889;28;20052;-59
2020/12/03 14:11:19;;;;;;;8.50;1.20;;;;;;;;;;5066729;28;20044;-58
2020/12/03 14:13:46;;;;;;;4.38;0.85;;;;;;;;;;5068583;28;20015;-58
2020/12/03 14:16:12;;;;;;;10.43;1.15;;;;;;;;;;5070558;28;20072;-59
2020/12/03 14:18:38;;;;;;;5.00;1.00;;;;;;;;;;5072639;28;20032;-58
2020/12/03 14:21:05;;;;;;;7.82;1.15;;;;;;;;;;5070357;28;20515;-59
2020/12/03 14:23:32;;;;;;;9.88;1.83;;;;;;;;;;5070379;28;20008;-59
2020/12/03 14:25:58;;;;;;;9.52;1.08;;;;;;;;;;5071445;28;20035;-59
2020/12/03 14:28:24;;;;;;;11.30;1.90;;;;;;;;;;5071904;28;20025;-59
2020/12/03 14:30:51;;;;;;;12.57;1.25;;;;;;;;;;5071461;28;20399;-60
2020/12/03 14:33:17;;;;;;;3.70;1.00;;;;;;;;;;5072704;28;20037;-59
2020/12/03 14:35:43;;;;;;;4.18;1.10;;;;;;;;;;5062890;28;20179;-59
2020/12/03 14:38:09;;;;;;;5.50;0.77;;;;;;;;;;5068460;28;20230;-59
2020/12/03 14:40:35;;;;;;;6.25;0.93;;;;;;;;;;5065335;28;20040;-59
2020/12/03 14:43:02;;;;;;;6.25;0.80;;;;;;;;;;5057114;28;20016;-58
2020/12/03 14:45:28;;;;;;;5.47;0.82;;;;;;;;;;5069017;28;20389;-59
2020/12/03 14:47:54;;;;;;;4.20;0.98;;;;;;;;;;5068753;28;20409;-59
2020/12/03 14:50:23;;;;;;;7.28;1.17;;;;;;;;;;5065113;28;20100;-59
2020/12/03 14:52:57;;;;;;;9.93;1.58;;;;;;;;;;5055142;28;20025;-59
2020/12/03 14:55:25;;;;;;;8.20;1.10;;;;;;;;;;5066295;28;20027;-66
2020/12/03 14:57:51;;;;;;;6.97;1.30;;;;;;;;;;5072245;28;20017;-63
2020/12/03 15:00:20;;;;;;;9.70;1.15;;;;;;;;;;5070022;28;20021;-64
2020/12/03 15:02:46;;;;;;;6.60;1.13;;;;;;;;;;5067083;28;20028;-62
2020/12/03 15:05:12;;;;;;;5.57;1.52;;;;;;;;;;5067560;28;20064;-59
2020/12/03 15:07:39;;;;;;;12.65;2.08;;;;;;;;;;5066500;28;20051;-58
2020/12/03 15:10:10;;;;;;;5.88;1.63;;;;;;;;;;5055001;28;20033;-59
2020/12/03 15:12:36;;;;;;;14.65;1.83;;;;;;;;;;5068500;28;20087;-59
2020/12/03 15:15:03;;;;;;;12.27;1.65;;;;;;;;;;5059110;28;20021;-58
2020/12/03 15:17:29;;;;;;;4.53;0.90;;;;;;;;;;5067283;28;20028;-59
2020/12/03 15:19:55;;;;;;;5.00;1.30;;;;;;;;;;5069679;28;20028;-59
2020/12/03 15:22:21;;;;;;;11.05;1.70;;;;;;;;;;5069110;28;20047;-59
2020/12/03 15:24:47;;;;;;;8.40;1.25;;;;;;;;;;5070698;28;20096;-62
2020/12/03 15:27:14;;;;;;;5.32;1.05;;;;;;;;;;5061641;28;20083;-59
2020/12/03 15:29:40;;;;;;;6.63;1.45;;;;;;;;;;5061503;28;20016;-60
2020/12/03 15:32:06;;;;;;;8.35;1.67;;;;;;;;;;5065517;28;20036;-59
2020/12/03 15:34:32;;;;;;;8.32;2.85;;;;;;;;;;5054828;28;20043;-58
2020/12/03 15:37:02;;;;;;;11.73;3.35;;;;;;;;;;5068860;28;20033;-59
2020/12/03 15:39:29;;;;;;;3.70;1.42;;;;;;;;;;5057120;28;20033;-59
2020/12/03 15:42:09;;;;;;;3.63;0.80;;;;;;;;;;5063609;28;20013;-57
2020/12/03 15:44:36;;;;;;;6.00;1.02;;;;;;;;;;5061935;28;20021;-59
2020/12/03 15:47:03;;;;;;;3.05;0.60;;;;;;;;;;5065327;28;20493;-59
2020/12/03 15:49:29;;;;;;;4.38;1.50;;;;;;;;;;5055418;28;20474;-59
2020/12/03 15:51:55;;;;;;;4.47;1.30;;;;;;;;;;5070878;28;20032;-58
2020/12/03 15:54:23;;;;;;;7.47;1.70;;;;;;;;;;5057339;28;20429;-59
2020/12/03 15:56:50;;;;;;;8.48;3.30;;;;;;;;;;5062550;28;20092;-59
2020/12/03 15:59:17;;;;;;;9.30;3.47;;;;;;;;;;5063281;28;20020;-59
2020/12/03 16:01:44;;;;;;;11.18;3.50;;;;;;;;;;5055482;28;20514;-58
2020/12/03 16:04:10;;;;;;;7.50;3.20;;;;;;;;;;5066444;28;20397;-58
2020/12/03 16:06:36;;;;;;;6.45;1.05;;;;;;;;;;5065425;28;20021;-58
2020/12/03 16:09:02;;;;;;;5.72;0.77;;;;;;;;;;5066570;28;20047;-58
2020/12/03 16:11:28;;;;;;;9.77;1.10;;;;;;;;;;5059573;28;20122;-64
2020/12/03 16:13:54;;;;;;;6.50;0.80;;;;;;;;;;5064533;28;20497;-61
2020/12/03 16:16:20;;;;;;;19.55;2.15;;;;;;;;;;5065358;28;20021;-65
2020/12/03 16:18:47;;;;;;;6.18;1.80;;;;;;;;;;5054241;28;20024;-64
2020/12/03 16:21:13;;;;;;;9.48;0.93;;;;;;;;;;5062382;28;20032;-63
2020/12/03 16:23:40;;;;;;;7.95;1.00;;;;;;;;;;5059366;28;20103;-63
2020/12/03 16:26:06;;;;;;;9.20;1.33;;;;;;;;;;5053312;28;20026;-63
2020/12/03 16:28:32;;;;;;;8.30;0.85;;;;;;;;;;5051937;28;20417;-63
2020/12/03 16:30:58;;;;;;;6.00;1.05;;;;;;;;;;5068228;28;20385;-63
2020/12/03 16:33:24;;;;;;;14.25;1.15;;;;;;;;;;5065126;28;20032;-63
2020/12/03 16:35:51;;;;;;;6.35;1.35;;;;;;;;;;5064591;28;20055;-65
2020/12/03 16:38:17;;;;;;;13.88;1.40;;;;;;;;;;5060006;28;20379;-63
2020/12/03 16:40:51;;;;;;;6.72;0.93;;;;;;;;;;5063681;28;20376;-63
2020/12/03 16:43:17;;;;;;;15.98;1.13;;;;;;;;;;5065019;28;20535;-64
2020/12/03 16:45:44;;;;;;;11.68;1.00;;;;;;;;;;5077414;28;20020;-63
2020/12/03 16:48:10;;;;;;;14.23;1.60;;;;;;;;;;5071523;28;20343;-56
2020/12/03 16:50:36;;;;;;;7.88;2.10;;;;;;;;;;5069627;28;20116;-56
2020/12/03 16:53:02;;;;;;;4.70;1.80;;;;;;;;;;5071439;28;20378;-60
2020/12/03 16:55:28;;;;;;;11.10;2.80;;;;;;;;;;5072020;28;20481;-55
2020/12/03 16:57:55;;;;;;;109.70;46.28;;;;;;;;;;5066610;28;20040;-63
2020/12/03 17:00:21;;;;;;;156.90;69.25;;;;;;;;;;5066343;28;20021;-56
2020/12/03 17:02:47;;;;;;;47.88;23.77;;;;;;;;;;5060293;28;20115;-54
2020/12/03 17:05:13;;;;;;;46.15;31.02;;;;;;;;;;5057015;28;20153;-54
2020/12/03 17:07:40;;;;;;;33.72;20.60;;;;;;;;;;5059005;28;20124;-56
2020/12/03 17:10:06;;;;;;;14.93;6.10;;;;;;;;;;5061345;28;20016;-56
2020/12/03 17:12:32;;;;;;;14.07;6.30;;;;;;;;;;5065716;28;20123;-56
2020/12/03 17:14:58;;;;;;;12.10;1.90;;;;;;;;;;5064172;28;20028;-52
2020/12/03 17:17:25;;;;;;;11.48;3.45;;;;;;;;;;5056882;28;20493;-55
2020/12/03 17:19:51;;;;;;;10.23;2.28;;;;;;;;;;5057326;28;20016;-55
2020/12/03 17:22:17;;;;;;;12.60;2.45;;;;;;;;;;5065206;28;20506;-56
2020/12/03 17:24:43;;;;;;;6.65;2.88;;;;;;;;;;5066514;28;20014;-55
2020/12/03 17:27:10;;;;;;;18.45;2.63;;;;;;;;;;5054619;28;20033;-56
2020/12/03 17:29:36;;;;;;;24.88;4.70;;;;;;;;;;5057163;28;20024;-55
2020/12/03 17:32:02;;;;;;;19.73;4.43;;;;;;;;;;5058724;28;20060;-60
2020/12/03 17:34:28;;;;;;;9.82;3.50;;;;;;;;;;5058612;28;20390;-57
2020/12/03 17:36:55;;;;;;;8.35;2.22;;;;;;;;;;5065329;28;20040;-58
2020/12/03 17:39:21;;;;;;;8.23;2.60;;;;;;;;;;5051361;28;20036;-55
2020/12/03 17:41:47;;;;;;;7.60;1.52;;;;;;;;;;5061649;28;20044;-55
2020/12/03 17:44:13;;;;;;;10.98;2.40;;;;;;;;;;5049818;28;20347;-53
2020/12/03 17:46:40;;;;;;;9.45;2.95;;;;;;;;;;5050501;28;20024;-53
2020/12/03 17:49:06;;;;;;;7.55;1.58;;;;;;;;;;5049019;28;20438;-53
2020/12/03 17:51:33;;;;;;;6.50;2.90;;;;;;;;;;5049743;28;20076;-55
2020/12/03 17:53:59;;;;;;;6.80;1.20;;;;;;;;;;5047579;28;20021;-57
2020/12/03 17:56:25;;;;;;;8.15;1.83;;;;;;;;;;5048749;28;20037;-56
2020/12/03 17:58:52;;;;;;;4.28;0.60;;;;;;;;;;5049121;28;20024;-55
2020/12/03 18:01:18;;;;;;;2.30;0.70;;;;;;;;;;5051376;28;20068;-57
2020/12/03 18:03:46;;;;;;;4.13;1.15;;;;;;;;;;5057478;28;20377;-54
2020/12/03 18:06:15;;;;;;;8.52;1.65;;;;;;;;;;5058863;28;20074;-54
2020/12/03 18:08:41;;;;;;;10.02;1.90;;;;;;;;;;5057609;28;20063;-53
2020/12/03 18:11:07;;;;;;;6.93;2.00;;;;;;;;;;5062742;28;20049;-55
2020/12/03 18:13:33;;;;;;;5.70;0.70;;;;;;;;;;5061412;28;20009;-57
2020/12/03 18:16:00;;;;;;;9.35;2.58;;;;;;;;;;5049783;28;20032;-56
2020/12/03 18:18:26;;;;;;;16.83;4.85;;;;;;;;;;5064580;28;20486;-55
2020/12/03 18:20:52;;;;;;;8.05;2.38;;;;;;;;;;5066963;28;20396;-54
2020/12/03 18:23:18;;;;;;;8.48;1.90;;;;;;;;;;5063173;28;20040;-62
2020/12/03 18:25:44;;;;;;;10.52;3.55;;;;;;;;;;5054727;28;20060;-55
2020/12/03 18:28:10;;;;;;;7.32;2.30;;;;;;;;;;5051684;28;20032;-55
2020/12/03 18:30:36;;;;;;;4.90;1.33;;;;;;;;;;5054617;28;20064;-55
2020/12/03 18:33:02;;;;;;;9.65;2.00;;;;;;;;;;5055121;28;20021;-57
2020/12/03 18:35:29;;;;;;;4.95;1.88;;;;;;;;;;5054613;28;20056;-57
2020/12/03 18:37:55;;;;;;;6.07;3.15;;;;;;;;;;5056663;28;20025;-56
2020/12/03 18:40:21;;;;;;;7.57;3.10;;;;;;;;;;5050426;28;20060;-61
2020/12/03 18:42:49;;;;;;;9.30;1.70;;;;;;;;;;5059201;28;20025;-56
2020/12/03 18:45:15;;;;;;;10.00;1.55;;;;;;;;;;5066606;28;20028;-55
2020/12/03 18:47:42;;;;;;;5.60;0.95;;;;;;;;;;5059183;28;20028;-59
2020/12/03 18:50:08;;;;;;;12.65;1.20;;;;;;;;;;5054983;28;20086;-54
2020/12/03 18:52:34;;;;;;;6.80;1.92;;;;;;;;;;5051973;28;20036;-56
2020/12/03 18:55:00;;;;;;;13.63;6.00;;;;;;;;;;5066581;28;20075;-56
2020/12/03 18:57:26;;;;;;;7.25;1.35;;;;;;;;;;5054303;28;20085;-57
2020/12/03 18:59:52;;;;;;;10.77;4.65;;;;;;;;;;5063705;28;20059;-56
2020/12/03 19:02:19;;;;;;;12.20;4.20;;;;;;;;;;5063654;28;20120;-54
2020/12/03 19:04:45;;;;;;;7.13;2.72;;;;;;;;;;5065447;28;20400;-56
2020/12/03 19:07:15;;;;;;;12.75;3.33;;;;;;;;;;5068329;28;20409;-59
2020/12/03 19:09:45;;;;;;;6.45;2.35;;;;;;;;;;5068252;28;20025;-56
2020/12/03 19:12:12;;;;;;;5.75;2.58;;;;;;;;;;5069854;28;20569;-58
2020/12/03 19:14:40;;;;;;;12.30;1.75;;;;;;;;;;5069892;28;20055;-56
2020/12/03 19:17:08;;;;;;;8.43;1.77;;;;;;;;;;5069846;28;20560;-55
2020/12/03 19:19:35;;;;;;;5.95;1.13;;;;;;;;;;5067359;28;20463;-54
2020/12/03 19:22:01;;;;;;;2.08;1.08;;;;;;;;;;5067862;28;20075;-54
2020/12/03 19:24:28;;;;;;;7.88;1.20;;;;;;;;;;5065112;28;20397;-54
2020/12/03 19:26:54;;;;;;;9.02;3.17;;;;;;;;;;5065728;28;20033;-56
2020/12/03 19:29:21;;;;;;;17.63;7.25;;;;;;;;;;5068026;28;20031;-59
2020/12/03 19:31:48;;;;;;;10.15;1.95;;;;;;;;;;5067952;28;20442;-56
2020/12/03 19:34:14;;;;;;;11.32;3.55;;;;;;;;;;5063499;28;20021;-56
2020/12/03 19:36:40;;;;;;;9.65;1.75;;;;;;;;;;5057544;28;20087;-56
2020/12/03 19:39:06;;;;;;;10.43;2.65;;;;;;;;;;5067466;28;20028;-63
2020/12/03 19:41:32;;;;;;;11.23;2.20;;;;;;;;;;5069001;28;20025;-63
2020/12/03 19:43:59;;;;;;;6.53;1.33;;;;;;;;;;5070131;28;20021;-64
2020/12/03 19:46:25;;;;;;;7.15;2.22;;;;;;;;;;5068965;28;20488;-64
2020/12/03 19:48:51;;;;;;;4.10;1.30;;;;;;;;;;5071911;28;20029;-63
2020/12/03 19:51:17;;;;;;;8.27;3.70;;;;;;;;;;5069376;28;20591;-63
2020/12/03 19:53:43;;;;;;;5.45;1.50;;;;;;;;;;5068783;28;20024;-63
2020/12/03 19:56:09;;;;;;;16.58;2.05;;;;;;;;;;5070634;28;20032;-59
2020/12/03 19:58:35;;;;;;;19.13;4.22;;;;;;;;;;5070221;28;20398;-57
2020/12/03 20:01:02;;;;;;;7.75;1.38;;;;;;;;;;5070303;28;20032;-58
2020/12/03 20:03:28;;;;;;;11.70;3.83;;;;;;;;;;5071654;28;20028;-60
2020/12/03 20:05:55;;;;;;;9.57;2.00;;;;;;;;;;5070915;28;20020;-58
2020/12/03 20:08:21;;;;;;;18.25;2.28;;;;;;;;;;5068613;28;20060;-58
2020/12/03 20:10:47;;;;;;;6.80;1.77;;;;;;;;;;5060753;28;20508;-57
2020/12/03 20:13:14;;;;;;;8.18;1.20;;;;;;;;;;5069047;28;20021;-56
2020/12/03 20:15:40;;;;;;;8.23;1.75;;;;;;;;;;5065882;28;20448;-58
2020/12/03 20:18:07;;;;;;;7.97;1.77;;;;;;;;;;5059684;28;20174;-60
2020/12/03 20:20:33;;;;;;;7.97;1.55;;;;;;;;;;5056977;28;20455;-58
2020/12/03 20:23:00;;;;;;;15.68;3.78;;;;;;;;;;5056772;28;20032;-59
2020/12/03 20:25:26;;;;;;;12.63;1.92;;;;;;;;;;5052911;28;20027;-60
2020/12/03 20:27:53;;;;;;;17.85;2.28;;;;;;;;;;5055344;28;20040;-58
2020/12/03 20:30:19;;;;;;;15.43;2.65;;;;;;;;;;5064268;28;20465;-59
2020/12/03 20:32:46;;;;;;;10.75;1.60;;;;;;;;;;5060444;28;20384;-62
2020/12/03 20:35:12;;;;;;;16.05;2.45;;;;;;;;;;5057098;28;20029;-59
2020/12/03 20:37:38;;;;;;;8.30;1.52;;;;;;;;;;5067362;28;20035;-59
2020/12/03 20:40:05;;;;;;;12.50;1.67;;;;;;;;;;5054082;28;20028;-60
2020/12/03 20:42:31;;;;;;;9.25;1.75;;;;;;;;;;5055962;28;20025;-59
2020/12/03 20:44:57;;;;;;;10.55;1.45;;;;;;;;;;5056562;28;20510;-59
2020/12/03 20:47:24;;;;;;;13.07;1.60;;;;;;;;;;5056403;28;20059;-59
2020/12/03 20:49:50;;;;;;;11.05;1.20;;;;;;;;;;5056070;28;20072;-59
2020/12/03 20:52:16;;;;;;;11.27;2.03;;;;;;;;;;5066784;28;20058;-59